PHX weather

Phoenix Sky Harbor International Airport
Phoenix, Arizona, United States

Public forecast

Using degrees Fahrenheit for public forecast. Weather courtesy of forecast.io.

METAR (pilot weather report)

Retrieved 2017/05/24 23:51 UTC (1 hour ago):

KPHX 242351Z 26015G21KT 10SM FEW120 BKN200 BKN250 41/M04 A2957 RMK AO2 PK WND 28026/2332 SLP991 T04061044 10422 20350 56029

TAF (pilot weather forecast)

Forecast is more than 12 hours old.

Retrieved 2017/05/24 00:36 UTC (1 day ago):

TAF KPHX 242335Z 2500/2524 26015G25KT P6SM BKN200 FM250400 27015KT P6SM BKN200 FM250600 24006KT P6SM BKN250 FM250900 14006KT P6SM BKN250 FM251900 24012G22KT P6SM SCT250